createdAt,value
2019-02-17T00:00:55.354Z,0
2019-02-17T00:01:57.565Z,0
2019-02-17T00:02:59.699Z,0
2019-02-17T00:04:01.813Z,0
2019-02-17T00:05:04.348Z,0
2019-02-17T00:06:06.453Z,0
2019-02-17T00:07:08.573Z,0
2019-02-17T00:08:10.706Z,0
2019-02-17T00:09:12.860Z,0
2019-02-17T00:10:14.967Z,0
2019-02-17T00:11:17.093Z,0
2019-02-17T00:12:19.206Z,0
2019-02-17T00:13:21.623Z,0
2019-02-17T00:14:25.362Z,0
2019-02-17T00:15:27.481Z,0
2019-02-17T00:16:29.583Z,0
2019-02-17T00:17:31.750Z,0
2019-02-17T00:18:33.882Z,0
2019-02-17T00:19:36.386Z,0
2019-02-17T00:20:38.513Z,0
2019-02-17T00:21:40.619Z,0
2019-02-17T00:22:42.770Z,0
2019-02-17T00:23:44.888Z,0
2019-02-17T00:24:47.016Z,0
2019-02-17T00:25:49.146Z,0
2019-02-17T00:26:51.295Z,0
2019-02-17T00:27:53.494Z,0
2019-02-17T00:29:01.346Z,0
2019-02-17T00:30:03.478Z,0
2019-02-17T00:31:05.877Z,0
2019-02-17T00:32:08.280Z,0
2019-02-17T00:33:10.389Z,0
2019-02-17T00:34:15.277Z,0
2019-02-17T00:35:17.403Z,0
2019-02-17T00:36:19.540Z,0
2019-02-17T00:37:21.673Z,0
2019-02-17T00:38:23.780Z,0
2019-02-17T00:39:25.920Z,0
2019-02-17T00:40:28.077Z,0
2019-02-17T00:41:30.209Z,0
2019-02-17T00:42:32.332Z,0
2019-02-17T00:43:34.725Z,0
2019-02-17T00:44:36.848Z,0
2019-02-17T00:45:38.972Z,0
2019-02-17T00:46:41.477Z,0
2019-02-17T00:47:43.884Z,0
2019-02-17T00:48:46.303Z,0
2019-02-17T00:49:48.414Z,0
2019-02-17T00:50:50.557Z,0
2019-02-17T00:51:52.675Z,0
2019-02-17T00:52:54.839Z,0
2019-02-17T00:53:57.836Z,0
2019-02-17T00:54:59.950Z,0
2019-02-17T00:56:02.100Z,0
2019-02-17T00:57:04.225Z,0
2019-02-17T00:58:06.373Z,0
2019-02-17T00:59:11.779Z,0
2019-02-17T01:00:13.986Z,0
2019-02-17T01:01:16.121Z,0
2019-02-17T01:02:18.247Z,0
2019-02-17T01:03:20.398Z,0
2019-02-17T01:04:22.507Z,0
2019-02-17T01:05:24.906Z,0
2019-02-17T01:06:27.026Z,0
2019-02-17T01:07:29.442Z,0
2019-02-17T01:08:31.552Z,0
2019-02-17T01:09:33.969Z,0
2019-02-17T01:10:36.095Z,0
2019-02-17T01:11:38.260Z,0
2019-02-17T01:12:40.399Z,0
2019-02-17T01:13:42.517Z,0
2019-02-17T01:14:44.628Z,0
2019-02-17T01:15:46.755Z,0
2019-02-17T01:16:48.892Z,0
2019-02-17T01:17:51.017Z,0
2019-02-17T01:18:53.132Z,0
2019-02-17T01:19:55.286Z,0
2019-02-17T01:20:57.792Z,0
2019-02-17T01:21:59.910Z,0
2019-02-17T01:23:02.047Z,0
2019-02-17T01:24:04.502Z,0
2019-02-17T01:25:06.617Z,0
2019-02-17T01:26:08.728Z,0
2019-02-17T01:27:10.858Z,0
2019-02-17T01:28:13.240Z,0
2019-02-17T01:29:22.066Z,0
2019-02-17T01:30:24.189Z,0
2019-02-17T01:31:26.717Z,0
2019-02-17T01:32:28.833Z,0
2019-02-17T01:33:30.957Z,0
2019-02-17T01:34:33.072Z,0
2019-02-17T01:35:35.176Z,0
2019-02-17T01:36:37.308Z,0
2019-02-17T01:37:39.413Z,0
2019-02-17T01:38:41.527Z,0
2019-02-17T01:39:43.641Z,0
2019-02-17T01:40:45.773Z,0
2019-02-17T01:41:47.874Z,0
2019-02-17T01:42:49.995Z,0
2019-02-17T01:43:52.137Z,0
2019-02-17T01:44:54.556Z,0
2019-02-17T01:45:56.733Z,0
2019-02-17T01:46:58.852Z,0
2019-02-17T01:48:01.238Z,0
2019-02-17T01:49:03.393Z,0
2019-02-17T01:50:05.520Z,0
2019-02-17T01:51:07.629Z,0
2019-02-17T01:52:09.759Z,0
2019-02-17T01:53:11.877Z,0
2019-02-17T01:54:13.977Z,0
2019-02-17T01:55:16.388Z,0
2019-02-17T01:56:18.512Z,0
2019-02-17T01:57:20.666Z,0
2019-02-17T01:58:23.176Z,0
2019-02-17T01:59:32.147Z,0
2019-02-17T02:00:34.547Z,0
2019-02-17T02:01:36.678Z,0
2019-02-17T02:02:38.806Z,0
2019-02-17T02:03:40.914Z,0
2019-02-17T02:04:43.014Z,0
2019-02-17T02:05:45.146Z,0
2019-02-17T02:06:47.257Z,0
2019-02-17T02:07:50.072Z,0
2019-02-17T02:08:52.586Z,0
2019-02-17T02:09:54.687Z,0
2019-02-17T02:10:56.823Z,0
2019-02-17T02:11:58.956Z,0
2019-02-17T02:13:01.152Z,0
2019-02-17T02:14:03.304Z,0
2019-02-17T02:15:05.426Z,0
2019-02-17T02:16:07.534Z,0
2019-02-17T02:17:09.647Z,0
2019-02-17T02:18:11.784Z,0
2019-02-17T02:19:13.893Z,0
2019-02-17T02:20:16.035Z,0
2019-02-17T02:21:18.565Z,0
2019-02-17T02:22:20.690Z,0
2019-02-17T02:23:23.101Z,0
2019-02-17T02:24:25.230Z,0
2019-02-17T02:25:27.338Z,0
2019-02-17T02:26:29.845Z,0
2019-02-17T02:27:31.981Z,0
2019-02-17T02:28:34.101Z,0
2019-02-17T02:29:42.983Z,0
2019-02-17T02:30:45.411Z,0
2019-02-17T02:31:47.561Z,0
2019-02-17T02:32:49.688Z,0
2019-02-17T02:33:52.239Z,0
2019-02-17T02:34:54.381Z,0
2019-02-17T02:35:56.502Z,0
2019-02-17T02:36:59.213Z,0
2019-02-17T02:38:01.627Z,0
2019-02-17T02:39:03.818Z,0
2019-02-17T02:40:06.224Z,0
2019-02-17T02:41:08.667Z,0
2019-02-17T02:42:10.819Z,0
2019-02-17T02:43:12.933Z,0
2019-02-17T02:44:15.656Z,0
2019-02-17T02:45:17.781Z,0
2019-02-17T02:46:20.066Z,0
2019-02-17T02:47:22.196Z,0
2019-02-17T02:48:24.333Z,0
2019-02-17T02:49:26.755Z,0
2019-02-17T02:50:28.868Z,0
2019-02-17T02:51:31.303Z,0
2019-02-17T02:52:33.479Z,0
2019-02-17T02:53:35.604Z,0
2019-02-17T02:54:37.741Z,0
2019-02-17T02:55:40.154Z,0
2019-02-17T02:56:42.271Z,0
2019-02-17T02:57:44.399Z,0
2019-02-17T02:58:46.533Z,0
2019-02-17T02:59:54.276Z,0
2019-02-17T03:00:56.424Z,0
2019-02-17T03:01:58.851Z,0
2019-02-17T03:03:00.977Z,0
2019-02-17T03:04:03.162Z,0
2019-02-17T03:05:05.274Z,0
2019-02-17T03:06:07.398Z,0
2019-02-17T03:07:09.543Z,0
2019-02-17T03:08:11.656Z,0
2019-02-17T03:09:13.780Z,0
2019-02-17T03:10:15.913Z,0
2019-02-17T03:11:18.047Z,0
2019-02-17T03:12:20.171Z,0
2019-02-17T03:13:22.279Z,0
2019-02-17T03:14:24.477Z,0
2019-02-17T03:15:26.611Z,0
2019-02-17T03:16:28.730Z,0
2019-02-17T03:17:31.570Z,0
2019-02-17T03:18:34.134Z,0
2019-02-17T03:19:36.562Z,0
2019-02-17T03:20:38.753Z,0
2019-02-17T03:21:40.904Z,0
2019-02-17T03:22:43.029Z,0
2019-02-17T03:23:45.533Z,0
2019-02-17T03:24:48.061Z,0
2019-02-17T03:25:50.508Z,0
2019-02-17T03:26:53.035Z,0
2019-02-17T03:27:55.179Z,0
2019-02-17T03:28:57.571Z,0
2019-02-17T03:30:08.119Z,0
2019-02-17T03:31:10.691Z,0
2019-02-17T03:32:13.382Z,0
2019-02-17T03:33:15.523Z,0
2019-02-17T03:34:18.242Z,0
2019-02-17T03:35:20.369Z,0
2019-02-17T03:36:23.110Z,0
2019-02-17T03:37:25.635Z,0
2019-02-17T03:38:27.759Z,0
2019-02-17T03:39:29.884Z,0
2019-02-17T03:40:32.075Z,0
2019-02-17T03:41:34.209Z,0
2019-02-17T03:42:36.335Z,0
2019-02-17T03:43:38.759Z,0
2019-02-17T03:44:40.897Z,0
2019-02-17T03:45:43.308Z,0
2019-02-17T03:46:45.447Z,0
2019-02-17T03:47:47.854Z,0
2019-02-17T03:48:49.982Z,0
2019-02-17T03:49:52.493Z,0
2019-02-17T03:50:54.912Z,0
2019-02-17T03:51:57.050Z,0
2019-02-17T03:52:59.187Z,0
2019-02-17T03:54:01.669Z,0
2019-02-17T03:55:04.381Z,0
2019-02-17T03:56:06.813Z,0
2019-02-17T03:57:09.220Z,0
2019-02-17T03:58:11.656Z,0
2019-02-17T03:59:14.147Z,0
2019-02-17T04:00:18.859Z,0
2019-02-17T04:01:21.015Z,0
2019-02-17T04:02:23.142Z,0
2019-02-17T04:03:25.269Z,0
2019-02-17T04:04:27.433Z,0
2019-02-17T04:05:29.662Z,0
2019-02-17T04:06:31.785Z,0
2019-02-17T04:07:33.928Z,0
2019-02-17T04:08:36.076Z,0
2019-02-17T04:09:38.212Z,0
2019-02-17T04:10:40.364Z,0
2019-02-17T04:11:42.485Z,0
2019-02-17T04:12:44.910Z,0
2019-02-17T04:13:47.031Z,0
2019-02-17T04:14:49.438Z,0
2019-02-17T04:15:51.854Z,0
2019-02-17T04:16:53.987Z,0
2019-02-17T04:17:56.504Z,0
2019-02-17T04:18:58.609Z,0
2019-02-17T04:20:00.971Z,0
2019-02-17T04:21:03.108Z,0
2019-02-17T04:22:05.215Z,0
2019-02-17T04:23:07.738Z,0
2019-02-17T04:24:09.849Z,0
2019-02-17T04:25:12.002Z,0
2019-02-17T04:26:14.165Z,0
2019-02-17T04:27:16.380Z,0
2019-02-17T04:28:18.489Z,0
2019-02-17T04:29:20.908Z,0
2019-02-17T04:30:31.133Z,0
2019-02-17T04:31:33.257Z,0
2019-02-17T04:32:35.453Z,0
2019-02-17T04:33:37.578Z,0
2019-02-17T04:34:40.091Z,0
2019-02-17T04:35:42.203Z,0
2019-02-17T04:36:44.361Z,0
2019-02-17T04:37:46.478Z,0
2019-02-17T04:38:48.614Z,0
2019-02-17T04:39:51.032Z,0
2019-02-17T04:40:53.561Z,0
2019-02-17T04:41:56.044Z,0
2019-02-17T04:42:58.182Z,0
2019-02-17T04:44:00.287Z,0
2019-02-17T04:45:03.009Z,0
2019-02-17T04:46:05.522Z,0
2019-02-17T04:47:07.633Z,0
2019-02-17T04:48:10.166Z,0
2019-02-17T04:49:12.289Z,0
2019-02-17T04:50:14.416Z,0
2019-02-17T04:51:16.826Z,0
2019-02-17T04:52:19.035Z,0
2019-02-17T04:53:21.448Z,0
2019-02-17T04:54:23.578Z,0
2019-02-17T04:55:25.996Z,0
2019-02-17T04:56:28.115Z,0
2019-02-17T04:57:30.636Z,0
2019-02-17T04:58:32.787Z,0
2019-02-17T04:59:35.293Z,0
2019-02-17T05:00:42.184Z,0
2019-02-17T05:01:44.877Z,0
2019-02-17T05:02:47.390Z,0
2019-02-17T05:03:49.511Z,0
2019-02-17T05:04:52.115Z,0
2019-02-17T05:05:54.241Z,0
2019-02-17T05:06:56.370Z,0
2019-02-17T05:07:58.553Z,0
2019-02-17T05:09:00.689Z,0
2019-02-17T05:10:02.839Z,0
2019-02-17T05:11:04.990Z,0
2019-02-17T05:12:07.133Z,0
2019-02-17T05:13:09.283Z,0
2019-02-17T05:14:11.741Z,0
2019-02-17T05:15:14.283Z,0
2019-02-17T05:16:16.718Z,0
2019-02-17T05:17:18.823Z,0
2019-02-17T05:18:21.262Z,0
2019-02-17T05:19:23.389Z,0
2019-02-17T05:20:25.499Z,0
2019-02-17T05:21:28.235Z,0
2019-02-17T05:22:30.372Z,0
2019-02-17T05:23:32.885Z,0
2019-02-17T05:24:35.102Z,0
2019-02-17T05:25:37.276Z,0
2019-02-17T05:26:39.398Z,0
2019-02-17T05:27:41.521Z,0
2019-02-17T05:28:43.660Z,0
2019-02-17T05:29:45.779Z,0
2019-02-17T05:30:55.018Z,0
2019-02-17T05:31:57.184Z,0
2019-02-17T05:33:00.117Z,0
2019-02-17T05:34:02.244Z,0
2019-02-17T05:35:04.390Z,0
2019-02-17T05:36:06.819Z,0
2019-02-17T05:37:08.947Z,0
2019-02-17T05:38:11.381Z,0
2019-02-17T05:39:13.499Z,0
2019-02-17T05:40:15.682Z,0
2019-02-17T05:41:17.829Z,0
2019-02-17T05:42:19.974Z,0
2019-02-17T05:43:22.813Z,0
2019-02-17T05:44:25.009Z,0
2019-02-17T05:45:27.428Z,0
2019-02-17T05:46:29.835Z,0
2019-02-17T05:47:31.964Z,0
2019-02-17T05:48:34.105Z,0
2019-02-17T05:49:36.236Z,0
2019-02-17T05:50:38.443Z,0
2019-02-17T05:51:40.570Z,0
2019-02-17T05:52:42.981Z,0
2019-02-17T05:53:45.378Z,0
2019-02-17T05:54:50.324Z,0
2019-02-17T05:55:52.943Z,0
2019-02-17T05:56:55.064Z,0
2019-02-17T05:57:57.451Z,0
2019-02-17T05:58:59.600Z,0
2019-02-17T06:00:02.022Z,0
2019-02-17T06:01:08.484Z,0
2019-02-17T06:02:10.621Z,0
2019-02-17T06:03:12.767Z,0
2019-02-17T06:04:15.609Z,0
2019-02-17T06:05:17.738Z,0
2019-02-17T06:06:19.891Z,0
2019-02-17T06:07:22.391Z,0
2019-02-17T06:08:24.536Z,0
2019-02-17T06:09:26.942Z,0
2019-02-17T06:10:29.102Z,0
2019-02-17T06:11:31.253Z,0
2019-02-17T06:12:33.753Z,0
2019-02-17T06:13:35.891Z,0
2019-02-17T06:14:38.467Z,0
2019-02-17T06:15:40.875Z,0
2019-02-17T06:16:42.984Z,0
2019-02-17T06:17:45.123Z,0
2019-02-17T06:18:47.308Z,0
2019-02-17T06:19:49.435Z,0
2019-02-17T06:20:51.562Z,0
2019-02-17T06:21:53.967Z,0
2019-02-17T06:22:56.095Z,0
2019-02-17T06:23:58.196Z,0
2019-02-17T06:25:00.439Z,0
2019-02-17T06:26:02.869Z,0
2019-02-17T06:27:04.981Z,0
2019-02-17T06:28:08.351Z,0
2019-02-17T06:29:10.763Z,0
2019-02-17T06:30:12.882Z,1
2019-02-17T06:31:16.126Z,1
2019-02-17T06:32:18.632Z,1
2019-02-17T06:33:21.901Z,1
2019-02-17T06:34:24.033Z,1
2019-02-17T06:35:26.159Z,1
2019-02-17T06:36:28.259Z,1
2019-02-17T06:37:30.777Z,1
2019-02-17T06:38:32.897Z,1
2019-02-17T06:39:35.328Z,2
2019-02-17T06:40:37.443Z,2
2019-02-17T06:41:40.412Z,2
2019-02-17T06:42:42.546Z,2
2019-02-17T06:43:44.695Z,2
2019-02-17T06:44:47.136Z,3
2019-02-17T06:45:49.247Z,3
2019-02-17T06:46:51.389Z,3
2019-02-17T06:47:53.825Z,3
2019-02-17T06:48:55.942Z,3
2019-02-17T06:49:58.051Z,3
2019-02-17T06:51:00.179Z,4
2019-02-17T06:52:02.752Z,4
2019-02-17T06:53:05.150Z,4
2019-02-17T06:54:07.282Z,4
2019-02-17T06:55:09.467Z,4
2019-02-17T06:56:11.585Z,4
2019-02-17T06:57:13.729Z,4
2019-02-17T06:58:16.237Z,4
2019-02-17T06:59:18.358Z,4
2019-02-17T07:00:20.490Z,4
2019-02-17T07:01:26.308Z,4
2019-02-17T07:02:28.436Z,4
2019-02-17T07:03:30.649Z,4
2019-02-17T07:04:32.838Z,4
2019-02-17T07:05:35.058Z,4
2019-02-17T07:06:37.283Z,5
2019-02-17T07:07:39.477Z,5
2019-02-17T07:08:41.715Z,5
2019-02-17T07:09:43.846Z,5
2019-02-17T07:10:45.958Z,6
2019-02-17T07:11:48.669Z,6
2019-02-17T07:12:51.386Z,6
2019-02-17T07:13:53.812Z,6
2019-02-17T07:14:55.918Z,6
2019-02-17T07:15:58.041Z,7
2019-02-17T07:17:00.160Z,7
2019-02-17T07:18:02.346Z,8
2019-02-17T07:19:04.488Z,8
2019-02-17T07:20:06.608Z,8
2019-02-17T07:21:09.010Z,9
2019-02-17T07:22:11.134Z,9
2019-02-17T07:23:15.943Z,9
2019-02-17T07:24:18.099Z,9
2019-02-17T07:25:31.772Z,9
2019-02-17T07:26:33.903Z,9
2019-02-17T07:27:36.014Z,9
2019-02-17T07:28:38.134Z,9
2019-02-17T07:29:40.314Z,9
2019-02-17T07:30:42.415Z,10
2019-02-17T07:31:44.543Z,10
2019-02-17T07:32:46.660Z,11
2019-02-17T07:33:49.405Z,11
2019-02-17T07:34:51.551Z,11
2019-02-17T07:35:53.968Z,10
2019-02-17T07:36:56.384Z,11
2019-02-17T07:37:58.496Z,11
2019-02-17T07:39:00.609Z,11
2019-02-17T07:40:03.129Z,12
2019-02-17T07:41:05.256Z,12
2019-02-17T07:42:10.570Z,12
2019-02-17T07:43:12.711Z,12
2019-02-17T07:44:15.172Z,12
2019-02-17T07:45:17.693Z,12
2019-02-17T07:46:19.802Z,12
2019-02-17T07:47:21.936Z,12
2019-02-17T07:48:24.037Z,13
2019-02-17T07:49:26.183Z,13
2019-02-17T07:50:28.366Z,14
2019-02-17T07:51:30.488Z,15
2019-02-17T07:52:35.755Z,17
2019-02-17T07:53:37.882Z,18
2019-02-17T07:54:39.985Z,20
2019-02-17T07:55:42.108Z,20
2019-02-17T07:56:44.232Z,22
2019-02-17T07:57:46.350Z,22
2019-02-17T07:58:48.475Z,23
2019-02-17T07:59:50.593Z,24
2019-02-17T08:00:52.696Z,24
2019-02-17T08:01:54.812Z,24
2019-02-17T08:02:56.954Z,25
2019-02-17T08:03:59.144Z,24
2019-02-17T08:05:01.387Z,24
2019-02-17T08:06:03.580Z,23
2019-02-17T08:07:05.694Z,23
2019-02-17T08:08:07.906Z,24
2019-02-17T08:09:10.019Z,25
2019-02-17T08:10:12.148Z,26
2019-02-17T08:11:14.566Z,27
2019-02-17T08:12:16.708Z,27
2019-02-17T08:13:18.814Z,26
2019-02-17T08:14:20.933Z,31
2019-02-17T08:15:23.156Z,30
2019-02-17T08:16:25.666Z,29
2019-02-17T08:17:27.774Z,29
2019-02-17T08:18:29.888Z,30
2019-02-17T08:19:32.004Z,31
2019-02-17T08:20:37.052Z,32
2019-02-17T08:21:39.454Z,33
2019-02-17T08:22:41.585Z,34
2019-02-17T08:23:43.708Z,34
2019-02-17T08:24:46.094Z,36
2019-02-17T08:25:48.225Z,37
2019-02-17T08:26:50.734Z,35
2019-02-17T08:27:52.858Z,43
2019-02-17T08:28:54.985Z,63
2019-02-17T08:29:57.120Z,41
2019-02-17T08:30:59.235Z,56
2019-02-17T08:32:01.357Z,74
2019-02-17T08:33:03.482Z,82
2019-02-17T08:34:05.612Z,76
2019-02-17T08:35:07.744Z,66
2019-02-17T08:36:09.881Z,76
2019-02-17T08:37:12.000Z,49
2019-02-17T08:38:14.173Z,49
2019-02-17T08:39:16.608Z,49
2019-02-17T08:40:18.722Z,46
2019-02-17T08:41:20.867Z,46
2019-02-17T08:42:22.990Z,47
2019-02-17T08:43:25.524Z,51
2019-02-17T08:44:27.634Z,51
2019-02-17T08:45:29.771Z,57
2019-02-17T08:46:31.884Z,66
2019-02-17T08:47:34.005Z,53
2019-02-17T08:48:36.142Z,55
2019-02-17T08:49:38.275Z,57
2019-02-17T08:50:40.410Z,54
2019-02-17T08:51:42.542Z,59
2019-02-17T08:52:44.963Z,60
2019-02-17T08:53:47.071Z,65
2019-02-17T08:54:49.201Z,63
2019-02-17T08:55:51.331Z,58
2019-02-17T08:56:53.459Z,58
2019-02-17T08:57:55.562Z,62
2019-02-17T08:58:57.785Z,76
2019-02-17T09:00:00.187Z,73
2019-02-17T09:01:02.303Z,55
2019-02-17T09:02:07.608Z,53
2019-02-17T09:03:09.749Z,52
2019-02-17T09:04:11.872Z,56
2019-02-17T09:05:14.366Z,61
2019-02-17T09:06:16.549Z,63
2019-02-17T09:07:19.247Z,64
2019-02-17T09:08:21.376Z,83
2019-02-17T09:09:23.525Z,69
2019-02-17T09:10:25.637Z,68
2019-02-17T09:11:27.767Z,68
2019-02-17T09:12:29.892Z,65
2019-02-17T09:13:32.002Z,65
2019-02-17T09:14:34.153Z,66
2019-02-17T09:15:36.275Z,68
2019-02-17T09:16:38.702Z,72
2019-02-17T09:17:41.106Z,67
2019-02-17T09:18:43.252Z,66
2019-02-17T09:19:45.373Z,60
2019-02-17T09:20:47.501Z,55
2019-02-17T09:21:49.940Z,52
2019-02-17T09:22:52.052Z,52
2019-02-17T09:23:54.486Z,49
2019-02-17T09:24:56.691Z,47
2019-02-17T09:25:59.093Z,47
2019-02-17T09:27:01.210Z,46
2019-02-17T09:28:03.351Z,44
2019-02-17T09:29:05.750Z,42
2019-02-17T09:30:07.868Z,38
2019-02-17T09:31:10.032Z,35
2019-02-17T09:32:18.038Z,29
2019-02-17T09:33:20.520Z,29
2019-02-17T09:34:22.672Z,29
2019-02-17T09:35:24.860Z,28
2019-02-17T09:36:26.988Z,30
2019-02-17T09:37:29.512Z,31
2019-02-17T09:38:31.627Z,32
2019-02-17T09:39:33.748Z,30
2019-02-17T09:40:35.882Z,30
2019-02-17T09:41:38.002Z,33
2019-02-17T09:42:40.153Z,37
2019-02-17T09:43:42.900Z,40
2019-02-17T09:44:45.024Z,42
2019-02-17T09:45:47.463Z,45
2019-02-17T09:46:49.605Z,47
2019-02-17T09:47:51.723Z,49
2019-02-17T09:48:56.276Z,50
2019-02-17T09:49:58.412Z,52
2019-02-17T09:51:00.550Z,52
2019-02-17T09:52:03.068Z,51
2019-02-17T09:53:05.220Z,53
2019-02-17T09:54:07.365Z,55
2019-02-17T09:55:09.473Z,55
2019-02-17T09:56:12.068Z,53
2019-02-17T09:57:14.180Z,51
2019-02-17T09:58:16.313Z,51
2019-02-17T09:59:18.500Z,56
2019-02-17T10:00:20.643Z,58
2019-02-17T10:01:22.764Z,60
2019-02-17T10:02:28.116Z,60
2019-02-17T10:03:30.259Z,63
2019-02-17T10:04:32.372Z,66
2019-02-17T10:05:34.889Z,67
2019-02-17T10:06:37.022Z,66
2019-02-17T10:07:39.524Z,65
2019-02-17T10:08:41.665Z,60
2019-02-17T10:09:43.806Z,58
2019-02-17T10:10:45.935Z,58
2019-02-17T10:11:48.346Z,58
2019-02-17T10:12:50.462Z,57
2019-02-17T10:13:53.009Z,54
2019-02-17T10:14:55.789Z,48
2019-02-17T10:15:58.185Z,48
2019-02-17T10:17:00.331Z,49
2019-02-17T10:18:02.448Z,56
2019-02-17T10:19:04.567Z,48
2019-02-17T10:20:06.986Z,49
2019-02-17T10:21:09.378Z,49
2019-02-17T10:22:11.536Z,50
2019-02-17T10:23:13.660Z,54
2019-02-17T10:24:16.250Z,58
2019-02-17T10:25:18.406Z,60
2019-02-17T10:26:20.543Z,71
2019-02-17T10:27:22.672Z,59
2019-02-17T10:28:24.912Z,55
2019-02-17T10:29:27.057Z,56
2019-02-17T10:30:29.227Z,57
2019-02-17T10:31:31.632Z,61
2019-02-17T10:32:40.809Z,64
2019-02-17T10:33:43.355Z,67
2019-02-17T10:34:45.502Z,69
2019-02-17T10:35:47.633Z,68
2019-02-17T10:36:49.983Z,73
2019-02-17T10:37:52.104Z,76
2019-02-17T10:38:54.410Z,70
2019-02-17T10:39:56.537Z,63
2019-02-17T10:40:58.679Z,106
2019-02-17T10:42:00.831Z,69
2019-02-17T10:43:05.085Z,71
2019-02-17T10:44:07.216Z,71
2019-02-17T10:45:09.379Z,73
2019-02-17T10:46:11.575Z,68
2019-02-17T10:47:13.690Z,77
2019-02-17T10:48:16.123Z,80
2019-02-17T10:49:20.643Z,82
2019-02-17T10:50:22.791Z,74
2019-02-17T10:51:27.641Z,77
2019-02-17T10:52:29.781Z,75
2019-02-17T10:53:31.916Z,82
2019-02-17T10:54:34.032Z,83
2019-02-17T10:55:36.176Z,88
2019-02-17T10:56:38.334Z,88
2019-02-17T10:57:40.569Z,91
2019-02-17T10:58:43.067Z,82
2019-02-17T10:59:45.499Z,78
2019-02-17T11:00:47.636Z,81
2019-02-17T11:01:50.170Z,92
2019-02-17T11:02:52.307Z,96
2019-02-17T11:03:54.419Z,132
2019-02-17T11:04:56.544Z,98
2019-02-17T11:05:58.656Z,107
2019-02-17T11:07:01.717Z,106
2019-02-17T11:08:03.878Z,93
2019-02-17T11:09:06.057Z,123
2019-02-17T11:10:08.245Z,108
2019-02-17T11:11:10.364Z,109
2019-02-17T11:12:12.503Z,125
2019-02-17T11:13:14.646Z,119
2019-02-17T11:14:17.109Z,134
2019-02-17T11:15:19.244Z,104
2019-02-17T11:16:21.811Z,91
2019-02-17T11:17:23.941Z,86
2019-02-17T11:18:26.509Z,90
2019-02-17T11:19:28.671Z,105
2019-02-17T11:20:30.793Z,127
2019-02-17T11:21:32.930Z,143
2019-02-17T11:22:35.138Z,154
2019-02-17T11:23:37.245Z,226
2019-02-17T11:24:39.379Z,250
2019-02-17T11:25:41.520Z,230
2019-02-17T11:26:44.331Z,219
2019-02-17T11:27:46.535Z,223
2019-02-17T11:28:48.856Z,209
2019-02-17T11:29:50.977Z,208
2019-02-17T11:30:53.115Z,206
2019-02-17T11:31:55.229Z,202
2019-02-17T11:32:59.639Z,201
2019-02-17T11:34:02.167Z,206
2019-02-17T11:35:04.977Z,209
2019-02-17T11:36:07.116Z,209
2019-02-17T11:37:09.234Z,208
2019-02-17T11:38:11.649Z,210
2019-02-17T11:39:13.776Z,214
2019-02-17T11:40:15.938Z,217
2019-02-17T11:41:18.081Z,222
2019-02-17T11:42:20.223Z,227
2019-02-17T11:43:23.048Z,223
2019-02-17T11:44:25.173Z,217
2019-02-17T11:45:27.704Z,215
2019-02-17T11:46:29.849Z,217
2019-02-17T11:47:32.037Z,207
2019-02-17T11:48:34.166Z,210
2019-02-17T11:49:36.309Z,215
2019-02-17T11:50:38.829Z,221
2019-02-17T11:51:41.253Z,219
2019-02-17T11:52:43.394Z,218
2019-02-17T11:53:45.516Z,222
2019-02-17T11:54:49.749Z,219
2019-02-17T11:55:51.903Z,216
2019-02-17T11:56:54.017Z,205
2019-02-17T11:57:56.171Z,207
2019-02-17T11:58:58.615Z,208
2019-02-17T12:00:01.130Z,211
2019-02-17T12:01:05.838Z,210
2019-02-17T12:02:07.976Z,213
2019-02-17T12:03:10.212Z,210
2019-02-17T12:04:12.348Z,207
2019-02-17T12:05:14.782Z,212
2019-02-17T12:06:16.920Z,213
2019-02-17T12:07:19.339Z,212
2019-02-17T12:08:21.485Z,220
2019-02-17T12:09:23.597Z,209
2019-02-17T12:10:25.744Z,212
2019-02-17T12:11:27.876Z,209
2019-02-17T12:12:30.013Z,211
2019-02-17T12:13:32.122Z,205
2019-02-17T12:14:34.266Z,210
2019-02-17T12:15:36.387Z,212
2019-02-17T12:16:38.734Z,213
2019-02-17T12:17:40.881Z,216
2019-02-17T12:18:43.007Z,211
2019-02-17T12:19:45.140Z,208
2019-02-17T12:20:47.369Z,189
2019-02-17T12:21:49.891Z,157
2019-02-17T12:22:52.015Z,191
2019-02-17T12:23:54.749Z,191
2019-02-17T12:24:56.877Z,199
2019-02-17T12:25:59.015Z,205
2019-02-17T12:27:01.167Z,207
2019-02-17T12:28:03.426Z,206
2019-02-17T12:29:06.228Z,201
2019-02-17T12:30:09.360Z,206
2019-02-17T12:31:11.487Z,207
2019-02-17T12:32:13.618Z,225
2019-02-17T12:33:23.423Z,218
2019-02-17T12:34:25.591Z,213
2019-02-17T12:35:27.734Z,218
2019-02-17T12:36:29.872Z,210
2019-02-17T12:37:32.322Z,200
2019-02-17T12:38:34.436Z,207
2019-02-17T12:39:36.590Z,211
2019-02-17T12:40:38.731Z,208
2019-02-17T12:41:40.865Z,210
2019-02-17T12:42:42.993Z,211
2019-02-17T12:43:45.149Z,211
2019-02-17T12:44:47.800Z,211
2019-02-17T12:45:49.941Z,219
2019-02-17T12:46:52.054Z,210
2019-02-17T12:47:59.966Z,187
2019-02-17T12:49:02.102Z,170
2019-02-17T12:50:06.388Z,178
2019-02-17T12:51:08.538Z,190
2019-02-17T12:52:10.740Z,197
2019-02-17T12:53:12.875Z,190
2019-02-17T12:54:15.310Z,191
2019-02-17T12:55:17.825Z,186
2019-02-17T12:56:19.958Z,185
2019-02-17T12:57:22.100Z,185
2019-02-17T12:58:31.773Z,147
2019-02-17T12:59:33.907Z,179
2019-02-17T13:00:36.056Z,181
2019-02-17T13:01:38.199Z,185
2019-02-17T13:02:40.728Z,192
2019-02-17T13:03:43.181Z,194
2019-02-17T13:04:45.316Z,181
2019-02-17T13:05:47.976Z,174
2019-02-17T13:06:50.121Z,175
2019-02-17T13:07:52.638Z,179
2019-02-17T13:08:54.865Z,178
2019-02-17T13:09:56.999Z,179
2019-02-17T13:10:59.191Z,176
2019-02-17T13:12:01.330Z,181
2019-02-17T13:13:06.690Z,165
2019-02-17T13:14:09.218Z,158
2019-02-17T13:15:11.358Z,158
2019-02-17T13:16:13.891Z,167
2019-02-17T13:17:16.010Z,168
2019-02-17T13:18:18.145Z,168
2019-02-17T13:19:20.299Z,166
2019-02-17T13:20:22.450Z,175
2019-02-17T13:21:24.578Z,122
2019-02-17T13:22:26.724Z,119
2019-02-17T13:23:28.874Z,122
2019-02-17T13:24:30.996Z,127
2019-02-17T13:25:33.471Z,134
2019-02-17T13:26:35.886Z,102
2019-02-17T13:27:38.016Z,89
2019-02-17T13:28:40.153Z,124
2019-02-17T13:29:42.298Z,127
2019-02-17T13:30:44.431Z,124
2019-02-17T13:31:46.848Z,128
2019-02-17T13:32:49.298Z,144
2019-02-17T13:33:51.425Z,146
2019-02-17T13:34:53.566Z,120
2019-02-17T13:35:55.706Z,107
2019-02-17T13:36:57.894Z,124
2019-02-17T13:38:00.108Z,140
2019-02-17T13:39:02.312Z,87
2019-02-17T13:40:04.837Z,94
2019-02-17T13:41:06.981Z,120
2019-02-17T13:42:09.126Z,124
2019-02-17T13:43:11.260Z,145
2019-02-17T13:44:13.393Z,112
2019-02-17T13:45:15.542Z,149
2019-02-17T13:46:17.664Z,111
2019-02-17T13:47:19.793Z,123
2019-02-17T13:48:21.940Z,124
2019-02-17T13:49:24.057Z,121
2019-02-17T13:50:26.495Z,118
2019-02-17T13:51:28.940Z,111
2019-02-17T13:52:33.482Z,100
2019-02-17T13:53:35.609Z,88
2019-02-17T13:54:37.757Z,99
2019-02-17T13:55:39.883Z,108
2019-02-17T13:56:42.019Z,109
2019-02-17T13:57:44.222Z,109
2019-02-17T13:58:46.362Z,86
2019-02-17T13:59:48.501Z,126
2019-02-17T14:00:50.622Z,87
2019-02-17T14:01:52.917Z,90
2019-02-17T14:02:55.059Z,89
2019-02-17T14:03:57.186Z,92
2019-02-17T14:04:59.614Z,88
2019-02-17T14:06:01.755Z,64
2019-02-17T14:07:03.895Z,68
2019-02-17T14:08:06.026Z,79
2019-02-17T14:09:08.172Z,86
2019-02-17T14:10:10.302Z,76
2019-02-17T14:11:12.439Z,67
2019-02-17T14:12:14.571Z,70
2019-02-17T14:13:16.701Z,69
2019-02-17T14:14:18.849Z,105
2019-02-17T14:15:21.345Z,78
2019-02-17T14:16:23.482Z,91
2019-02-17T14:17:25.610Z,69
2019-02-17T14:18:27.765Z,49
2019-02-17T14:19:29.887Z,54
2019-02-17T14:20:32.037Z,32
2019-02-17T14:21:34.183Z,37
2019-02-17T14:22:36.303Z,37
2019-02-17T14:23:38.451Z,32
2019-02-17T14:24:40.587Z,31
2019-02-17T14:25:43.004Z,37
2019-02-17T14:26:45.119Z,45
2019-02-17T14:27:47.450Z,47
2019-02-17T14:28:49.864Z,46
2019-02-17T14:29:52.280Z,42
2019-02-17T14:30:54.842Z,43
2019-02-17T14:31:56.954Z,44
2019-02-17T14:32:59.096Z,42
2019-02-17T14:34:01.278Z,41
2019-02-17T14:35:03.813Z,44
2019-02-17T14:36:05.938Z,43
2019-02-17T14:37:08.072Z,40
2019-02-17T14:38:10.200Z,41
2019-02-17T14:39:12.329Z,43
2019-02-17T14:40:14.523Z,40
2019-02-17T14:41:16.953Z,39
2019-02-17T14:42:19.135Z,38
2019-02-17T14:43:21.283Z,33
2019-02-17T14:44:23.413Z,36
2019-02-17T14:45:25.557Z,33
2019-02-17T14:46:27.700Z,30
2019-02-17T14:47:29.815Z,27
2019-02-17T14:48:31.997Z,27
2019-02-17T14:49:34.143Z,30
2019-02-17T14:50:36.610Z,30
2019-02-17T14:51:38.763Z,31
2019-02-17T14:52:41.306Z,33
2019-02-17T14:53:43.517Z,33
2019-02-17T14:54:45.730Z,36
2019-02-17T14:55:48.016Z,30
2019-02-17T14:56:50.167Z,30
2019-02-17T14:57:52.297Z,23
2019-02-17T14:58:54.418Z,22
2019-02-17T14:59:56.582Z,24
2019-02-17T15:00:58.731Z,24